Time;durP1;ratioP1;P1;durP2;ratioP2;P2;SDS_P1;SDS_P2;PMS_P1;PMS_P2;Temp;Humidity;BMP_temperature;BMP_pressure;BME280_temperature;BME280_humidity;BME280_pressure;Samples;Min_cycle;Max_cycle;Signal;HPM_P1;HPM_P2
2023/12/18 00:01:29;;;;;;;38.97;11.50;;;;;;;;;;5040008;28;20433;-68
2023/12/18 00:04:02;;;;;;;32.70;10.97;;;;;;;;;;5045525;28;20421;-68
2023/12/18 00:06:30;;;;;;;35.40;11.02;;;;;;;;;;5032683;28;20465;-68
2023/12/18 00:08:57;;;;;;;34.92;11.73;;;;;;;;;;5039582;28;20474;-68
2023/12/18 00:11:24;;;;;;;46.15;11.85;;;;;;;;;;5036705;28;20433;-68
2023/12/18 00:13:51;;;;;;;56.67;12.35;;;;;;;;;;5041669;28;20431;-68
2023/12/18 00:16:19;;;;;;;50.10;12.55;;;;;;;;;;5041167;28;20437;-68
2023/12/18 00:18:46;;;;;;;49.60;12.70;;;;;;;;;;5043939;28;20433;-68
2023/12/18 00:21:13;;;;;;;55.85;13.57;;;;;;;;;;5039648;28;20428;-68
2023/12/18 00:23:41;;;;;;;45.33;12.07;;;;;;;;;;5043917;28;21062;-68
2023/12/18 00:26:08;;;;;;;46.30;12.70;;;;;;;;;;5044358;28;20490;-68
2023/12/18 00:28:35;;;;;;;56.53;12.65;;;;;;;;;;5041012;28;20433;-68
2023/12/18 00:31:02;;;;;;;53.80;13.38;;;;;;;;;;5039955;28;20816;-68
2023/12/18 00:33:29;;;;;;;67.18;13.52;;;;;;;;;;5036465;28;20429;-68
2023/12/18 00:35:57;;;;;;;50.03;14.13;;;;;;;;;;5037084;28;20439;-68
2023/12/18 00:38:24;;;;;;;58.50;14.23;;;;;;;;;;5040797;28;20907;-68
2023/12/18 00:40:51;;;;;;;81.18;14.52;;;;;;;;;;5035857;28;20425;-69
2023/12/18 00:43:18;;;;;;;52.00;14.45;;;;;;;;;;5032635;28;20522;-68
2023/12/18 00:45:45;;;;;;;68.47;14.75;;;;;;;;;;5034392;28;20507;-68
2023/12/18 00:48:13;;;;;;;45.40;13.85;;;;;;;;;;5036328;28;20465;-69
2023/12/18 00:50:40;;;;;;;42.30;14.20;;;;;;;;;;5037511;28;20441;-68
2023/12/18 00:53:07;;;;;;;78.82;14.52;;;;;;;;;;5034818;28;20527;-68
2023/12/18 00:55:34;;;;;;;64.80;14.38;;;;;;;;;;5039039;28;20435;-68
2023/12/18 00:58:01;;;;;;;62.85;14.38;;;;;;;;;;5037761;28;20513;-69
2023/12/18 01:00:29;;;;;;;68.60;14.83;;;;;;;;;;5042738;28;20429;-69
2023/12/18 01:02:56;;;;;;;44.88;14.18;;;;;;;;;;5035537;28;20435;-67
2023/12/18 01:05:23;;;;;;;70.13;14.48;;;;;;;;;;5039172;28;20425;-67
2023/12/18 01:07:50;;;;;;;62.67;14.80;;;;;;;;;;5041254;28;20438;-67
2023/12/18 01:10:18;;;;;;;58.28;14.57;;;;;;;;;;5042179;28;20433;-67
2023/12/18 01:12:45;;;;;;;88.65;15.60;;;;;;;;;;5030856;28;20430;-69
2023/12/18 01:15:12;;;;;;;76.13;14.07;;;;;;;;;;5045236;28;20509;-67
2023/12/18 01:17:39;;;;;;;69.82;13.52;;;;;;;;;;5034913;28;20437;-66
2023/12/18 01:20:07;;;;;;;64.10;13.53;;;;;;;;;;5035731;28;20921;-69
2023/12/18 01:22:34;;;;;;;89.57;15.13;;;;;;;;;;5040634;28;20994;-69
2023/12/18 01:25:02;;;;;;;78.10;14.70;;;;;;;;;;5039479;28;20482;-69
2023/12/18 01:27:29;;;;;;;79.20;14.68;;;;;;;;;;5038486;28;20439;-69
2023/12/18 01:29:57;;;;;;;61.03;13.82;;;;;;;;;;5038573;28;20528;-69
2023/12/18 01:32:24;;;;;;;65.38;13.90;;;;;;;;;;5034374;28;20429;-69
2023/12/18 01:34:51;;;;;;;84.10;13.83;;;;;;;;;;5034765;28;20461;-69
2023/12/18 01:37:18;;;;;;;73.78;13.82;;;;;;;;;;5041919;28;20483;-69
2023/12/18 01:39:45;;;;;;;68.85;14.40;;;;;;;;;;5042155;28;21275;-69
2023/12/18 01:42:12;;;;;;;70.70;15.85;;;;;;;;;;5040129;28;20441;-69
2023/12/18 01:44:40;;;;;;;56.65;14.20;;;;;;;;;;5037034;28;20798;-69
2023/12/18 01:47:07;;;;;;;83.55;15.57;;;;;;;;;;5039666;28;20526;-69
2023/12/18 01:49:36;;;;;;;86.13;16.48;;;;;;;;;;5038626;28;20791;-69
2023/12/18 01:52:04;;;;;;;82.63;15.63;;;;;;;;;;5038653;28;20519;-69
2023/12/18 01:54:31;;;;;;;80.15;16.23;;;;;;;;;;5035474;28;21173;-69
2023/12/18 01:56:59;;;;;;;73.20;15.50;;;;;;;;;;5043488;28;20441;-69
2023/12/18 01:59:27;;;;;;;100.88;16.58;;;;;;;;;;5039897;28;20764;-69
2023/12/18 02:01:54;;;;;;;84.13;16.70;;;;;;;;;;5035848;28;20444;-69
2023/12/18 02:04:21;;;;;;;98.63;17.65;;;;;;;;;;5040797;28;20924;-69
2023/12/18 02:06:49;;;;;;;93.90;18.67;;;;;;;;;;5031525;28;20953;-69
2023/12/18 02:09:16;;;;;;;140.00;21.10;;;;;;;;;;5037223;28;20466;-69
2023/12/18 02:11:44;;;;;;;93.45;17.98;;;;;;;;;;5041039;28;20440;-69
2023/12/18 02:14:12;;;;;;;103.15;18.23;;;;;;;;;;5035333;28;20905;-69
2023/12/18 02:16:40;;;;;;;108.60;18.52;;;;;;;;;;5035704;28;20433;-69
2023/12/18 02:19:23;;;;;;;76.33;18.10;;;;;;;;;;5042631;28;20505;-69
2023/12/18 02:21:51;;;;;;;109.55;18.38;;;;;;;;;;5036560;28;20441;-69
2023/12/18 02:24:19;;;;;;;112.07;18.63;;;;;;;;;;5032747;28;20438;-69
2023/12/18 02:26:47;;;;;;;99.50;17.90;;;;;;;;;;5038995;28;20425;-69
2023/12/18 02:29:14;;;;;;;100.55;18.10;;;;;;;;;;5035886;28;20914;-69
2023/12/18 02:31:42;;;;;;;108.57;18.98;;;;;;;;;;5035401;28;20946;-69
2023/12/18 02:34:10;;;;;;;89.78;17.98;;;;;;;;;;5035968;28;20438;-69
2023/12/18 02:36:37;;;;;;;122.13;19.35;;;;;;;;;;5035385;28;20458;-69
2023/12/18 02:39:05;;;;;;;134.83;19.53;;;;;;;;;;5041214;28;20846;-69
2023/12/18 02:41:32;;;;;;;109.22;18.42;;;;;;;;;;5030948;28;20469;-69
2023/12/18 02:43:59;;;;;;;83.53;17.02;;;;;;;;;;5049024;28;20435;-69
2023/12/18 02:46:26;;;;;;;93.80;17.40;;;;;;;;;;5041347;28;20435;-69
2023/12/18 02:48:54;;;;;;;123.22;20.10;;;;;;;;;;5043946;28;20910;-69
2023/12/18 02:51:21;;;;;;;98.28;18.48;;;;;;;;;;5037297;28;20425;-69
2023/12/18 02:53:48;;;;;;;89.65;18.25;;;;;;;;;;5035699;28;20429;-69
2023/12/18 02:56:15;;;;;;;120.85;18.17;;;;;;;;;;5042024;28;20504;-69
2023/12/18 02:58:43;;;;;;;89.47;17.80;;;;;;;;;;5046270;28;20508;-69
2023/12/18 03:01:10;;;;;;;99.47;18.95;;;;;;;;;;5041059;28;20489;-69
2023/12/18 03:03:37;;;;;;;121.38;19.98;;;;;;;;;;5035088;28;20430;-69
2023/12/18 03:06:04;;;;;;;112.15;19.70;;;;;;;;;;5039638;28;20500;-69
2023/12/18 03:08:32;;;;;;;111.55;18.73;;;;;;;;;;5037037;28;20464;-69
2023/12/18 03:10:59;;;;;;;96.65;18.67;;;;;;;;;;5040263;28;20458;-69
2023/12/18 03:13:26;;;;;;;71.18;17.20;;;;;;;;;;5032294;28;20818;-69
2023/12/18 03:15:53;;;;;;;97.45;17.65;;;;;;;;;;5035547;28;20513;-69
2023/12/18 03:18:20;;;;;;;73.25;17.75;;;;;;;;;;5040309;28;20435;-69
2023/12/18 03:20:49;;;;;;;77.83;17.03;;;;;;;;;;5035312;28;20431;-69
2023/12/18 03:23:16;;;;;;;85.63;17.43;;;;;;;;;;5033549;28;20437;-69
2023/12/18 03:25:43;;;;;;;94.00;18.05;;;;;;;;;;5040784;28;20497;-69
2023/12/18 03:28:12;;;;;;;98.00;18.40;;;;;;;;;;5032123;28;20451;-69
2023/12/18 03:30:39;;;;;;;94.35;18.77;;;;;;;;;;5035377;28;20432;-69
2023/12/18 03:33:06;;;;;;;115.35;19.30;;;;;;;;;;5030795;28;21062;-69
2023/12/18 03:35:34;;;;;;;78.25;16.75;;;;;;;;;;5036815;28;20430;-69
2023/12/18 03:38:01;;;;;;;92.03;19.77;;;;;;;;;;5032629;28;20442;-69
2023/12/18 03:40:28;;;;;;;107.22;19.00;;;;;;;;;;5037467;28;20477;-69
2023/12/18 03:42:55;;;;;;;79.78;16.02;;;;;;;;;;5034864;28;20530;-69
2023/12/18 03:45:22;;;;;;;96.80;18.42;;;;;;;;;;5030092;28;20837;-69
2023/12/18 03:47:49;;;;;;;97.70;17.40;;;;;;;;;;5041486;28;20433;-69
2023/12/18 03:50:17;;;;;;;135.88;18.63;;;;;;;;;;5042387;28;20905;-69
2023/12/18 03:52:44;;;;;;;115.82;19.40;;;;;;;;;;5036569;28;21229;-69
2023/12/18 03:55:11;;;;;;;89.63;16.90;;;;;;;;;;5033314;28;20551;-69
2023/12/18 03:57:39;;;;;;;104.28;17.58;;;;;;;;;;5038741;28;20438;-69
2023/12/18 04:00:07;;;;;;;120.57;17.87;;;;;;;;;;5041142;28;20479;-69
2023/12/18 04:02:34;;;;;;;153.93;18.17;;;;;;;;;;5040123;28;20448;-69
2023/12/18 04:05:01;;;;;;;139.85;18.48;;;;;;;;;;5042587;28;20429;-69
2023/12/18 04:07:29;;;;;;;178.57;21.30;;;;;;;;;;5038467;28;20435;-69
2023/12/18 04:09:56;;;;;;;188.10;21.75;;;;;;;;;;5031644;28;20508;-69
2023/12/18 04:12:23;;;;;;;157.68;20.70;;;;;;;;;;5045561;28;20504;-69
2023/12/18 04:14:50;;;;;;;141.40;19.75;;;;;;;;;;5036645;28;20430;-69
2023/12/18 04:17:17;;;;;;;83.17;17.07;;;;;;;;;;5034505;28;20421;-69
2023/12/18 04:19:44;;;;;;;88.05;17.55;;;;;;;;;;5037256;28;20446;-69
2023/12/18 04:22:11;;;;;;;122.70;18.10;;;;;;;;;;5040184;28;20510;-69
2023/12/18 04:24:38;;;;;;;126.35;18.20;;;;;;;;;;5038413;28;20537;-69
2023/12/18 04:27:06;;;;;;;157.63;19.55;;;;;;;;;;5041146;28;20471;-69
2023/12/18 04:29:33;;;;;;;103.95;17.88;;;;;;;;;;5035879;28;20457;-69
2023/12/18 04:32:00;;;;;;;120.90;18.08;;;;;;;;;;5038234;28;21114;-69
2023/12/18 04:34:28;;;;;;;91.13;17.05;;;;;;;;;;5041412;28;20430;-69
2023/12/18 04:36:55;;;;;;;111.43;17.37;;;;;;;;;;5032528;28;21339;-69
2023/12/18 04:39:25;;;;;;;82.78;16.20;;;;;;;;;;5033843;28;20921;-69
2023/12/18 04:41:52;;;;;;;104.45;17.00;;;;;;;;;;5035531;28;20909;-69
2023/12/18 04:44:20;;;;;;;95.45;16.60;;;;;;;;;;5039993;28;20518;-69
2023/12/18 04:46:47;;;;;;;122.15;19.38;;;;;;;;;;5036429;28;20438;-69
2023/12/18 04:49:14;;;;;;;89.10;17.27;;;;;;;;;;5035684;28;20909;-69
2023/12/18 04:51:41;;;;;;;82.30;17.07;;;;;;;;;;5036833;28;21112;-69
2023/12/18 04:54:09;;;;;;;83.60;16.30;;;;;;;;;;5039946;28;20429;-69
2023/12/18 04:56:36;;;;;;;127.37;19.60;;;;;;;;;;5040289;28;20527;-69
2023/12/18 04:59:03;;;;;;;88.05;16.98;;;;;;;;;;5034802;28;20937;-69
2023/12/18 05:01:30;;;;;;;125.13;18.23;;;;;;;;;;5038293;28;20510;-69
2023/12/18 05:03:58;;;;;;;115.45;18.27;;;;;;;;;;5047613;28;20425;-69
2023/12/18 05:06:27;;;;;;;93.05;16.77;;;;;;;;;;5042014;28;20434;-69
2023/12/18 05:08:55;;;;;;;124.45;18.63;;;;;;;;;;5044287;28;20453;-68
2023/12/18 05:11:25;;;;;;;80.00;17.23;;;;;;;;;;5039672;28;20479;-69
2023/12/18 05:13:52;;;;;;;109.00;17.42;;;;;;;;;;5043003;28;20440;-69
2023/12/18 05:16:19;;;;;;;121.65;17.83;;;;;;;;;;5029531;28;20517;-68
2023/12/18 05:18:47;;;;;;;96.95;17.90;;;;;;;;;;5043595;28;21243;-69
2023/12/18 05:21:14;;;;;;;99.68;17.40;;;;;;;;;;5038714;28;20427;-69
2023/12/18 05:23:41;;;;;;;144.18;18.80;;;;;;;;;;5039400;28;20435;-69
2023/12/18 05:26:08;;;;;;;134.48;18.35;;;;;;;;;;5039626;28;20479;-69
2023/12/18 05:28:36;;;;;;;88.80;16.67;;;;;;;;;;5044273;28;20437;-69
2023/12/18 05:31:03;;;;;;;135.18;19.27;;;;;;;;;;5038263;28;20463;-68
2023/12/18 05:33:30;;;;;;;114.60;18.73;;;;;;;;;;5039884;28;20471;-69
2023/12/18 05:35:58;;;;;;;122.63;19.73;;;;;;;;;;5039618;28;20421;-69
2023/12/18 05:38:25;;;;;;;133.57;19.75;;;;;;;;;;5041682;28;20426;-69
2023/12/18 05:40:52;;;;;;;143.25;21.50;;;;;;;;;;5035766;28;20538;-69
2023/12/18 05:43:19;;;;;;;97.95;19.20;;;;;;;;;;5040490;28;20490;-69
2023/12/18 05:45:47;;;;;;;164.97;21.90;;;;;;;;;;5041474;28;20464;-69
2023/12/18 05:48:14;;;;;;;165.70;21.83;;;;;;;;;;5035727;28;20909;-69
2023/12/18 05:50:41;;;;;;;144.13;21.77;;;;;;;;;;5037062;28;20434;-69
2023/12/18 05:53:08;;;;;;;126.93;20.83;;;;;;;;;;5040365;28;20437;-68
2023/12/18 05:55:35;;;;;;;123.25;20.73;;;;;;;;;;5042882;28;21185;-69
2023/12/18 05:58:03;;;;;;;98.03;20.10;;;;;;;;;;5038021;28;20440;-69
2023/12/18 06:00:30;;;;;;;174.00;22.97;;;;;;;;;;5031126;28;20434;-69
2023/12/18 06:02:57;;;;;;;103.85;20.40;;;;;;;;;;5036841;28;20439;-69
2023/12/18 06:05:24;;;;;;;158.40;22.95;;;;;;;;;;5039509;28;20461;-69
2023/12/18 06:07:51;;;;;;;116.25;21.60;;;;;;;;;;5041374;28;20810;-69
2023/12/18 06:10:18;;;;;;;161.57;22.43;;;;;;;;;;5039851;28;20779;-69
2023/12/18 06:12:45;;;;;;;111.93;20.25;;;;;;;;;;5039137;28;20504;-69
2023/12/18 06:15:13;;;;;;;121.78;20.70;;;;;;;;;;5038176;28;20438;-68
2023/12/18 06:17:40;;;;;;;116.22;21.20;;;;;;;;;;5043438;28;20429;-69
2023/12/18 06:20:08;;;;;;;96.85;20.83;;;;;;;;;;5041081;28;20433;-69
2023/12/18 06:22:35;;;;;;;76.87;18.60;;;;;;;;;;5033618;28;20567;-69
2023/12/18 06:25:03;;;;;;;102.40;20.73;;;;;;;;;;5033129;28;20468;-68
2023/12/18 06:27:30;;;;;;;132.30;21.40;;;;;;;;;;5036457;28;20463;-67
2023/12/18 06:29:57;;;;;;;149.25;21.65;;;;;;;;;;5039841;28;20438;-68
2023/12/18 06:32:25;;;;;;;118.53;20.60;;;;;;;;;;5036681;28;20431;-68
2023/12/18 06:34:52;;;;;;;110.30;19.90;;;;;;;;;;5036682;28;20434;-68
2023/12/18 06:37:19;;;;;;;110.68;19.10;;;;;;;;;;5044872;28;20428;-68
2023/12/18 06:39:46;;;;;;;82.00;18.50;;;;;;;;;;5032936;28;20967;-67
2023/12/18 06:42:14;;;;;;;152.10;22.25;;;;;;;;;;5039452;28;20429;-68
2023/12/18 06:44:41;;;;;;;92.63;18.67;;;;;;;;;;5039371;28;20483;-68
2023/12/18 06:47:08;;;;;;;129.20;21.25;;;;;;;;;;5037419;28;20461;-68
2023/12/18 06:49:35;;;;;;;132.40;21.80;;;;;;;;;;5037088;28;20434;-68
2023/12/18 06:52:03;;;;;;;93.88;18.13;;;;;;;;;;5032790;28;20436;-68
2023/12/18 06:54:30;;;;;;;86.32;19.30;;;;;;;;;;5047087;28;20547;-68
2023/12/18 06:56:57;;;;;;;153.95;21.58;;;;;;;;;;5043547;28;20465;-67
2023/12/18 06:59:24;;;;;;;90.72;19.52;;;;;;;;;;5030834;28;20525;-68
2023/12/18 07:01:51;;;;;;;87.07;19.55;;;;;;;;;;5037722;28;20466;-68
2023/12/18 07:04:19;;;;;;;72.57;18.03;;;;;;;;;;5044851;28;20437;-68
2023/12/18 07:06:46;;;;;;;88.93;19.20;;;;;;;;;;5036711;28;20727;-68
2023/12/18 07:09:13;;;;;;;75.75;19.23;;;;;;;;;;5040900;28;20433;-68
2023/12/18 07:11:40;;;;;;;70.13;18.37;;;;;;;;;;5046269;28;21141;-68
2023/12/18 07:14:07;;;;;;;113.00;19.95;;;;;;;;;;5040406;28;20522;-67
2023/12/18 07:16:35;;;;;;;129.25;20.80;;;;;;;;;;5032720;28;20506;-67
2023/12/18 07:19:02;;;;;;;112.43;20.30;;;;;;;;;;5041451;28;20433;-67
2023/12/18 07:21:29;;;;;;;50.25;16.85;;;;;;;;;;5043807;28;20513;-67
2023/12/18 07:23:57;;;;;;;60.65;16.02;;;;;;;;;;5040326;28;20433;-67
2023/12/18 07:26:24;;;;;;;43.17;14.80;;;;;;;;;;5032714;28;20433;-67
2023/12/18 07:28:51;;;;;;;67.30;16.27;;;;;;;;;;5044697;28;20497;-67
2023/12/18 07:31:18;;;;;;;71.13;16.85;;;;;;;;;;5035366;28;20429;-67
2023/12/18 07:33:46;;;;;;;91.22;17.33;;;;;;;;;;5038029;28;20458;-67
2023/12/18 07:36:13;;;;;;;81.60;16.92;;;;;;;;;;5041469;28;20422;-67
2023/12/18 07:38:40;;;;;;;86.53;17.93;;;;;;;;;;5037157;28;20436;-67
2023/12/18 07:41:07;;;;;;;86.53;17.98;;;;;;;;;;5040321;28;20495;-68
2023/12/18 07:43:34;;;;;;;91.07;18.30;;;;;;;;;;5033212;28;20433;-67
2023/12/18 07:46:02;;;;;;;76.70;17.48;;;;;;;;;;5038465;28;20524;-67
2023/12/18 07:48:32;;;;;;;106.50;17.97;;;;;;;;;;5035821;28;20517;-68
2023/12/18 07:50:59;;;;;;;65.55;16.48;;;;;;;;;;5035119;28;20462;-67
2023/12/18 07:53:28;;;;;;;77.95;17.30;;;;;;;;;;5035017;28;20537;-67
2023/12/18 07:55:55;;;;;;;60.35;15.38;;;;;;;;;;5040673;28;20434;-67
2023/12/18 07:58:22;;;;;;;48.40;14.17;;;;;;;;;;5039873;28;20518;-67
2023/12/18 08:00:49;;;;;;;45.92;14.18;;;;;;;;;;5039698;28;20483;-67
2023/12/18 08:03:17;;;;;;;56.22;13.50;;;;;;;;;;5028090;28;20434;-67
2023/12/18 08:05:44;;;;;;;65.03;14.50;;;;;;;;;;5040711;28;20502;-67
2023/12/18 08:08:11;;;;;;;57.17;14.50;;;;;;;;;;5044566;28;20495;-68
2023/12/18 08:10:38;;;;;;;50.67;13.55;;;;;;;;;;5033681;28;20430;-67
2023/12/18 08:13:05;;;;;;;59.47;14.57;;;;;;;;;;5033394;28;20434;-67
2023/12/18 08:15:33;;;;;;;55.85;13.60;;;;;;;;;;5035141;28;20446;-67
2023/12/18 08:18:00;;;;;;;43.90;12.95;;;;;;;;;;5039568;28;20429;-67
2023/12/18 08:20:27;;;;;;;41.40;12.57;;;;;;;;;;5043446;28;20429;-68
2023/12/18 08:22:54;;;;;;;54.53;13.45;;;;;;;;;;5032342;28;20943;-68
2023/12/18 08:25:21;;;;;;;47.25;13.05;;;;;;;;;;5031145;28;20431;-67
2023/12/18 08:27:48;;;;;;;56.75;13.68;;;;;;;;;;5038854;28;20458;-67
2023/12/18 08:30:16;;;;;;;53.67;13.73;;;;;;;;;;5035827;28;21072;-67
2023/12/18 08:32:43;;;;;;;57.42;13.85;;;;;;;;;;5037392;28;20558;-67
2023/12/18 08:35:11;;;;;;;52.50;13.32;;;;;;;;;;5040221;28;20436;-67
2023/12/18 08:37:38;;;;;;;59.13;14.27;;;;;;;;;;5041852;28;20440;-68
2023/12/18 08:40:05;;;;;;;44.05;13.20;;;;;;;;;;5041310;28;20512;-68
2023/12/18 08:42:32;;;;;;;47.22;13.85;;;;;;;;;;5039676;28;20443;-68
2023/12/18 08:44:59;;;;;;;53.72;14.30;;;;;;;;;;5040093;28;20481;-67
2023/12/18 08:47:27;;;;;;;45.88;14.00;;;;;;;;;;5035431;28;20434;-68
2023/12/18 08:49:54;;;;;;;39.08;13.32;;;;;;;;;;5042745;28;20438;-69
2023/12/18 08:52:21;;;;;;;52.47;14.23;;;;;;;;;;5041448;28;20789;-68
2023/12/18 08:54:48;;;;;;;46.17;13.70;;;;;;;;;;5043481;28;20834;-68
2023/12/18 08:57:16;;;;;;;43.28;14.38;;;;;;;;;;5039397;28;20499;-67
2023/12/18 08:59:43;;;;;;;42.17;13.98;;;;;;;;;;5038171;28;20932;-66
2023/12/18 09:02:10;;;;;;;42.53;13.70;;;;;;;;;;5043859;28;20491;-66
2023/12/18 09:04:37;;;;;;;34.97;13.07;;;;;;;;;;5038289;28;20521;-66
2023/12/18 09:07:05;;;;;;;39.78;13.82;;;;;;;;;;5040060;28;20431;-66
2023/12/18 09:09:32;;;;;;;46.80;13.00;;;;;;;;;;5038021;28;20437;-66
2023/12/18 09:11:59;;;;;;;43.20;12.85;;;;;;;;;;5043398;28;20425;-66
2023/12/18 09:14:26;;;;;;;47.67;13.48;;;;;;;;;;5037605;28;20449;-66
2023/12/18 09:16:53;;;;;;;32.30;12.27;;;;;;;;;;5035420;28;20980;-66
2023/12/18 09:19:21;;;;;;;31.83;13.03;;;;;;;;;;5035920;28;20434;-66
2023/12/18 09:21:48;;;;;;;34.58;13.80;;;;;;;;;;5033066;28;20430;-66
2023/12/18 09:24:15;;;;;;;31.67;13.20;;;;;;;;;;5040048;28;20447;-66
2023/12/18 09:26:42;;;;;;;34.72;13.27;;;;;;;;;;5042012;28;20432;-66
2023/12/18 09:29:09;;;;;;;40.47;15.18;;;;;;;;;;5036894;28;20520;-66
2023/12/18 09:31:36;;;;;;;45.50;15.55;;;;;;;;;;5042241;28;20515;-66
2023/12/18 09:34:04;;;;;;;55.20;18.00;;;;;;;;;;5040930;28;21118;-66
2023/12/18 09:36:31;;;;;;;52.65;18.73;;;;;;;;;;5039556;28;20509;-66
2023/12/18 09:38:59;;;;;;;50.03;19.17;;;;;;;;;;5037183;28;20438;-66
2023/12/18 09:41:26;;;;;;;58.90;18.98;;;;;;;;;;5040084;28;20457;-66
2023/12/18 09:43:54;;;;;;;51.33;16.80;;;;;;;;;;5041260;28;20536;-66
2023/12/18 09:46:25;;;;;;;53.97;18.48;;;;;;;;;;5039086;28;20444;-66
2023/12/18 09:48:53;;;;;;;49.80;17.80;;;;;;;;;;5042853;28;20437;-66
2023/12/18 09:51:21;;;;;;;44.67;18.10;;;;;;;;;;5038926;28;20431;-66
2023/12/18 09:53:48;;;;;;;44.30;16.52;;;;;;;;;;5043605;28;20494;-66
2023/12/18 09:56:17;;;;;;;36.05;15.57;;;;;;;;;;5045133;28;20888;-66
2023/12/18 09:58:44;;;;;;;30.75;16.60;;;;;;;;;;5039333;28;21023;-66
2023/12/18 10:01:14;;;;;;;40.38;16.05;;;;;;;;;;5041954;28;20514;-66
2023/12/18 10:03:41;;;;;;;42.88;16.55;;;;;;;;;;5041807;28;20424;-66
2023/12/18 10:06:09;;;;;;;31.27;14.90;;;;;;;;;;5046366;28;20425;-66
2023/12/18 10:08:37;;;;;;;31.90;13.80;;;;;;;;;;5040545;28;20417;-66
2023/12/18 10:11:04;;;;;;;24.30;13.43;;;;;;;;;;5036792;28;20423;-66
2023/12/18 10:13:31;;;;;;;27.63;12.93;;;;;;;;;;5043050;28;20432;-66
2023/12/18 10:15:58;;;;;;;28.90;12.60;;;;;;;;;;5043725;28;20506;-66
2023/12/18 10:18:26;;;;;;;21.20;12.18;;;;;;;;;;5044326;28;20504;-66
2023/12/18 10:20:54;;;;;;;22.63;13.43;;;;;;;;;;5036421;28;20436;-66
2023/12/18 10:23:21;;;;;;;26.55;12.65;;;;;;;;;;5042470;28;20470;-66
2023/12/18 10:25:48;;;;;;;22.05;12.63;;;;;;;;;;5036688;28;20427;-66
2023/12/18 10:28:16;;;;;;;20.02;12.25;;;;;;;;;;5035403;28;21219;-66
2023/12/18 10:30:44;;;;;;;22.98;11.88;;;;;;;;;;5045922;28;21046;-66
2023/12/18 10:33:12;;;;;;;17.10;10.90;;;;;;;;;;5039330;28;20433;-66
2023/12/18 10:35:40;;;;;;;21.65;11.98;;;;;;;;;;5040758;28;20440;-66
2023/12/18 10:38:09;;;;;;;20.25;12.05;;;;;;;;;;5045233;28;20433;-66
2023/12/18 10:40:37;;;;;;;20.73;12.02;;;;;;;;;;5045739;28;20854;-66
2023/12/18 10:43:04;;;;;;;20.20;11.77;;;;;;;;;;5039847;28;20559;-66
2023/12/18 10:45:31;;;;;;;22.23;12.57;;;;;;;;;;5042184;28;20880;-68
2023/12/18 10:47:59;;;;;;;20.30;12.13;;;;;;;;;;5042079;28;20807;-66
2023/12/18 10:50:30;;;;;;;26.15;13.88;;;;;;;;;;5041743;28;20435;-66
2023/12/18 10:52:59;;;;;;;24.45;13.70;;;;;;;;;;5038529;28;21136;-66
2023/12/18 10:55:27;;;;;;;26.70;15.10;;;;;;;;;;5042495;28;20510;-66
2023/12/18 10:57:57;;;;;;;27.38;14.60;;;;;;;;;;5045305;28;20486;-66
2023/12/18 11:00:25;;;;;;;29.80;16.75;;;;;;;;;;5043334;28;20442;-66
2023/12/18 11:02:52;;;;;;;29.55;17.38;;;;;;;;;;5043539;28;20921;-66
2023/12/18 11:05:20;;;;;;;29.50;17.10;;;;;;;;;;5038180;28;20476;-66
2023/12/18 11:07:48;;;;;;;29.25;17.15;;;;;;;;;;5039037;28;20921;-66
2023/12/18 11:10:19;;;;;;;28.13;17.03;;;;;;;;;;4813849;28;21033;-67
2023/12/18 11:12:47;;;;;;;26.87;15.60;;;;;;;;;;4793536;28;20433;-67
2023/12/18 11:15:32;;;;;;;25.58;15.98;;;;;;;;;;5033514;28;20464;-66
2023/12/18 11:18:08;;;;;;;25.90;16.30;;;;;;;;;;5040789;28;20426;-67
2023/12/18 11:20:37;;;;;;;28.50;17.63;;;;;;;;;;5037404;28;20437;-67
2023/12/18 11:23:05;;;;;;;28.50;16.80;;;;;;;;;;5036250;28;20457;-66
2023/12/18 11:25:33;;;;;;;26.55;16.33;;;;;;;;;;5035443;28;20852;-67
2023/12/18 11:28:04;;;;;;;26.08;15.68;;;;;;;;;;5034042;28;20460;-66
2023/12/18 11:30:32;;;;;;;25.80;15.73;;;;;;;;;;5038386;28;20575;-67
2023/12/18 11:33:03;;;;;;;28.35;17.52;;;;;;;;;;5034445;28;20433;-67
2023/12/18 11:35:31;;;;;;;25.38;16.13;;;;;;;;;;5034099;28;20484;-67
2023/12/18 11:38:06;;;;;;;27.90;15.60;;;;;;;;;;5034526;28;20848;-67
2023/12/18 11:40:35;;;;;;;24.00;15.27;;;;;;;;;;5037688;28;20441;-67
2023/12/18 11:43:03;;;;;;;27.10;16.73;;;;;;;;;;5038802;28;20435;-67
2023/12/18 11:45:31;;;;;;;29.40;17.10;;;;;;;;;;5036293;28;20431;-67
2023/12/18 11:48:02;;;;;;;28.77;17.48;;;;;;;;;;5035352;28;20437;-68
2023/12/18 11:50:38;;;;;;;28.57;18.43;;;;;;;;;;5037672;28;20433;-67
2023/12/18 11:53:09;;;;;;;32.20;19.60;;;;;;;;;;5033949;28;21362;-67
2023/12/18 11:55:52;;;;;;;29.48;17.77;;;;;;;;;;5040447;28;20429;-68
2023/12/18 11:58:20;;;;;;;31.67;19.45;;;;;;;;;;5041020;28;20429;-67
2023/12/18 12:00:48;;;;;;;31.95;19.27;;;;;;;;;;5031282;28;20944;-67
2023/12/18 12:03:15;;;;;;;31.97;18.37;;;;;;;;;;5038751;28;20825;-67
2023/12/18 12:05:43;;;;;;;31.20;19.13;;;;;;;;;;5034306;28;20434;-67
2023/12/18 12:08:11;;;;;;;35.57;20.43;;;;;;;;;;5040260;28;20444;-66
2023/12/18 12:10:42;;;;;;;29.73;19.00;;;;;;;;;;5029489;28;20434;-66
2023/12/18 12:13:19;;;;;;;32.88;19.60;;;;;;;;;;5033501;28;20428;-66
2023/12/18 12:15:53;;;;;;;30.37;18.63;;;;;;;;;;5042478;28;20864;-67
2023/12/18 12:18:20;;;;;;;29.92;17.92;;;;;;;;;;5037075;28;20433;-67
2023/12/18 12:20:48;;;;;;;26.43;16.13;;;;;;;;;;5040291;28;20431;-66
2023/12/18 12:23:15;;;;;;;27.35;16.83;;;;;;;;;;5039731;28;20453;-67
2023/12/18 12:25:42;;;;;;;29.25;17.65;;;;;;;;;;5035693;28;20440;-67
2023/12/18 12:28:09;;;;;;;30.08;17.92;;;;;;;;;;5036837;28;20437;-66
2023/12/18 12:30:36;;;;;;;30.50;17.52;;;;;;;;;;5036060;28;20486;-66
2023/12/18 12:33:05;;;;;;;27.55;17.02;;;;;;;;;;5029135;28;20433;-67
2023/12/18 12:35:33;;;;;;;28.40;18.13;;;;;;;;;;5032637;28;20520;-67
2023/12/18 12:38:05;;;;;;;29.73;17.58;;;;;;;;;;5035396;28;20429;-66
2023/12/18 12:40:39;;;;;;;29.02;17.08;;;;;;;;;;5043703;28;20440;-66
2023/12/18 12:43:06;;;;;;;31.08;18.83;;;;;;;;;;5039497;28;20495;-66
2023/12/18 12:45:35;;;;;;;29.80;18.75;;;;;;;;;;5039228;28;20439;-67
2023/12/18 12:48:05;;;;;;;31.73;18.67;;;;;;;;;;5034039;28;20438;-66
2023/12/18 12:50:35;;;;;;;31.00;18.83;;;;;;;;;;5030541;28;20828;-66
2023/12/18 12:53:03;;;;;;;32.78;19.80;;;;;;;;;;5035162;28;20781;-67
2023/12/18 12:55:30;;;;;;;30.48;18.85;;;;;;;;;;5037106;28;21003;-67
2023/12/18 12:57:57;;;;;;;29.70;19.65;;;;;;;;;;5029778;28;20430;-66
2023/12/18 13:00:24;;;;;;;31.25;19.05;;;;;;;;;;5040189;28;20425;-67
2023/12/18 13:02:54;;;;;;;28.58;18.23;;;;;;;;;;5029657;28;20477;-66
2023/12/18 13:05:21;;;;;;;28.48;17.95;;;;;;;;;;5033754;28;20438;-67
2023/12/18 13:07:50;;;;;;;29.55;18.23;;;;;;;;;;5045736;28;20504;-67
2023/12/18 13:10:18;;;;;;;28.08;17.52;;;;;;;;;;5040509;28;20429;-67
2023/12/18 13:12:45;;;;;;;29.27;17.77;;;;;;;;;;5038939;28;20428;-66
2023/12/18 13:15:12;;;;;;;28.25;17.92;;;;;;;;;;5031615;28;21016;-67
2023/12/18 13:17:40;;;;;;;27.70;17.00;;;;;;;;;;5034771;28;20915;-67
2023/12/18 13:20:07;;;;;;;29.20;17.70;;;;;;;;;;5034445;28;20466;-66
2023/12/18 13:22:49;;;;;;;26.33;17.42;;;;;;;;;;5039797;28;20478;-67
2023/12/18 13:25:17;;;;;;;27.75;18.88;;;;;;;;;;5041068;28;20527;-67
2023/12/18 13:27:44;;;;;;;31.73;17.98;;;;;;;;;;5035471;28;20434;-67
2023/12/18 13:30:12;;;;;;;32.47;19.77;;;;;;;;;;5040400;28;20570;-67
2023/12/18 13:32:39;;;;;;;30.23;19.23;;;;;;;;;;5037564;28;20444;-67
2023/12/18 13:35:07;;;;;;;33.47;19.47;;;;;;;;;;5044183;28;20456;-67
2023/12/18 13:37:35;;;;;;;33.55;19.27;;;;;;;;;;5042242;28;20903;-67
2023/12/18 13:40:03;;;;;;;32.50;19.02;;;;;;;;;;5045898;28;20429;-67
2023/12/18 13:42:30;;;;;;;34.17;19.80;;;;;;;;;;5037396;28;20437;-67
2023/12/18 13:44:57;;;;;;;31.90;18.58;;;;;;;;;;5042606;28;20453;-67
2023/12/18 13:47:26;;;;;;;29.52;18.70;;;;;;;;;;5042363;28;20437;-66
2023/12/18 13:49:53;;;;;;;30.95;19.13;;;;;;;;;;5044026;28;20433;-66
2023/12/18 13:52:21;;;;;;;28.58;18.42;;;;;;;;;;5046751;28;21165;-67
2023/12/18 13:54:48;;;;;;;31.55;19.08;;;;;;;;;;5034278;28;20924;-67
2023/12/18 13:57:16;;;;;;;29.45;19.05;;;;;;;;;;5030823;28;20439;-66
2023/12/18 13:59:44;;;;;;;32.92;18.58;;;;;;;;;;5037918;28;20444;-66
2023/12/18 14:02:11;;;;;;;28.65;18.63;;;;;;;;;;5039506;28;20442;-67
2023/12/18 14:04:38;;;;;;;30.88;18.55;;;;;;;;;;5045355;28;20515;-67
2023/12/18 14:07:06;;;;;;;31.45;19.33;;;;;;;;;;5043668;28;20472;-67
2023/12/18 14:09:33;;;;;;;30.75;19.98;;;;;;;;;;5042290;28;20940;-67
2023/12/18 14:12:00;;;;;;;28.20;18.50;;;;;;;;;;5044547;28;20421;-67
2023/12/18 14:14:27;;;;;;;30.65;18.80;;;;;;;;;;5033830;28;20441;-67
2023/12/18 14:16:55;;;;;;;28.77;17.57;;;;;;;;;;5034475;28;20868;-67